Time;durP1;ratioP1;P1;durP2;ratioP2;P2;SDS_P1;SDS_P2;PMS_P1;PMS_P2;Temp;Humidity;BMP_temperature;BMP_pressure;BME280_temperature;BME280_humidity;BME280_pressure;Samples;Min_cycle;Max_cycle;Signal;HPM_P1;HPM_P2
2022/10/15 00:01:18;;;;;;;5.67;5.13;;;;;;;14.64;99.94;99579.00;5008411;28;20210;-77
2022/10/15 00:03:45;;;;;;;8.83;5.40;;;;;;;14.53;100.00;99582.16;5024876;28;20206;-77
2022/10/15 00:06:15;;;;;;;6.70;6.20;;;;;;;14.34;100.00;99576.91;5022428;28;20232;-77
2022/10/15 00:08:42;;;;;;;5.53;5.13;;;;;;;14.42;100.00;99560.81;5023075;28;20213;-77
2022/10/15 00:11:12;;;;;;;6.17;5.67;;;;;;;14.40;100.00;99553.00;5024189;28;20201;-77
2022/10/15 00:13:39;;;;;;;9.67;4.30;;;;;;;14.42;100.00;99553.75;5022602;28;20587;-76
2022/10/15 00:16:10;;;;;;;9.53;3.90;;;;;;;14.43;100.00;99541.47;5022411;28;20722;-76
2022/10/15 00:18:37;;;;;;;5.13;4.80;;;;;;;14.34;100.00;99537.53;5020571;28;20199;-76
2022/10/15 00:21:06;;;;;;;6.40;5.90;;;;;;;14.30;100.00;99528.13;5025270;28;20217;-77
2022/10/15 00:23:33;;;;;;;6.07;5.57;;;;;;;14.24;100.00;99525.78;5023959;28;20212;-77
2022/10/15 00:26:05;;;;;;;5.87;5.37;;;;;;;14.37;100.00;99523.41;5018900;28;20234;-77
2022/10/15 00:28:31;;;;;;;6.57;5.07;;;;;;;14.35;100.00;99525.25;5013377;28;20209;-77
2022/10/15 00:31:02;;;;;;;5.07;4.57;;;;;;;14.24;100.00;99516.13;5013466;28;20211;-77
2022/10/15 00:33:30;;;;;;;5.67;5.10;;;;;;;14.21;100.00;99524.19;5013717;28;20209;-77
2022/10/15 00:36:02;;;;;;;6.33;4.40;;;;;;;14.25;100.00;99522.22;5013335;28;20730;-76
2022/10/15 00:38:29;;;;;;;5.97;5.37;;;;;;;14.20;100.00;99516.38;5013502;28;20581;-76
2022/10/15 00:40:56;;;;;;;8.13;5.07;;;;;;;14.26;100.00;99505.56;5013213;28;20209;-77
2022/10/15 00:43:40;;;;;;;5.73;5.20;;;;;;;14.36;100.00;99513.84;5013237;28;20209;-77
2022/10/15 00:46:12;;;;;;;10.13;5.10;;;;;;;14.42;100.00;99527.50;5012466;28;20238;-77
2022/10/15 00:48:41;;;;;;;7.00;4.10;;;;;;;14.47;100.00;99540.44;5013405;28;20204;-77
2022/10/15 00:51:08;;;;;;;5.30;4.80;;;;;;;14.51;100.00;99541.97;5012895;28;20702;-77
2022/10/15 00:53:35;;;;;;;4.77;4.47;;;;;;;14.49;100.00;99556.97;5013142;28;20218;-77
2022/10/15 00:56:02;;;;;;;6.17;5.67;;;;;;;14.52;100.00;99555.94;5012975;28;20233;-76
2022/10/15 00:58:31;;;;;;;6.63;6.13;;;;;;;14.50;100.00;99561.28;5013296;28;20216;-77
2022/10/15 01:00:58;;;;;;;6.17;5.77;;;;;;;14.47;100.00;99567.53;5012997;28;20208;-77
2022/10/15 01:03:25;;;;;;;5.87;5.47;;;;;;;14.55;100.00;99564.53;5012936;28;20212;-77
2022/10/15 01:05:54;;;;;;;5.70;5.23;;;;;;;14.47;100.00;99566.69;5012851;28;20241;-77
2022/10/15 01:08:21;;;;;;;7.00;6.50;;;;;;;14.50;100.00;99562.13;5012802;28;20219;-77
2022/10/15 01:10:54;;;;;;;6.73;6.03;;;;;;;14.57;100.00;99572.34;5012687;28;20206;-77
2022/10/15 01:13:29;;;;;;;6.50;6.10;;;;;;;14.58;100.00;99576.69;5012886;28;20209;-77
2022/10/15 01:16:01;;;;;;;6.20;5.70;;;;;;;14.64;99.84;99584.25;5012722;28;20233;-77
2022/10/15 01:18:34;;;;;;;6.97;5.90;;;;;;;14.72;99.02;99597.00;5012666;28;20224;-76
2022/10/15 01:21:11;;;;;;;6.27;5.77;;;;;;;14.72;98.90;99608.38;5012741;28;20218;-76
2022/10/15 01:24:07;;;;;;;7.07;6.57;;;;;;;14.72;98.62;99604.91;5027433;22;20221;-80
2022/10/15 01:27:10;;;;;;;7.13;6.63;;;;;;;14.72;98.58;99604.91;4994760;28;20214;-80
2022/10/15 01:29:55;;;;;;;7.80;5.90;;;;;;;14.69;98.71;99603.28;4979449;28;20209;-80
2022/10/15 01:32:27;;;;;;;6.33;5.83;;;;;;;14.69;98.52;99598.88;4994966;28;20220;-80
2022/10/15 01:35:00;;;;;;;6.83;6.33;;;;;;;14.70;98.30;99604.97;4995150;28;20237;-80
2022/10/15 01:37:38;;;;;;;7.30;5.90;;;;;;;14.69;98.48;99600.66;4994369;28;20205;-80
2022/10/15 01:40:09;;;;;;;5.20;4.70;;;;;;;14.65;98.44;99602.56;4994481;28;20264;-80
2022/10/15 01:42:43;;;;;;;6.27;4.83;;;;;;;14.64;98.79;99594.75;4994414;28;20217;-80
2022/10/15 01:45:17;;;;;;;5.80;5.30;;;;;;;14.64;98.52;99589.50;4994484;28;20237;-80
2022/10/15 01:47:49;;;;;;;5.13;4.27;;;;;;;14.63;98.59;99588.66;4994599;28;20221;-80
2022/10/15 01:50:19;;;;;;;5.63;4.07;;;;;;;14.61;98.37;99582.66;4994172;28;20218;-81
2022/10/15 01:52:46;;;;;;;4.70;3.57;;;;;;;14.59;98.48;99581.88;4995510;28;20210;-82
2022/10/15 01:55:16;;;;;;;9.90;4.70;;;;;;;14.58;98.84;99584.56;4999600;28;20223;-82
2022/10/15 01:57:44;;;;;;;4.20;3.17;;;;;;;14.57;98.97;99573.22;4999612;28;20203;-83
2022/10/15 02:00:12;;;;;;;15.17;3.30;;;;;;;14.57;99.05;99575.84;5000169;28;20213;-83
2022/10/15 02:02:38;;;;;;;6.37;3.27;;;;;;;14.56;99.10;99576.75;5000381;28;20221;-84
2022/10/15 02:05:09;;;;;;;6.70;4.43;;;;;;;14.56;98.95;99575.88;4999876;28;20235;-83
2022/10/15 02:07:43;;;;;;;8.57;3.27;;;;;;;14.53;99.13;99574.25;5000226;28;20221;-83
2022/10/15 02:10:18;;;;;;;8.20;3.63;;;;;;;14.48;99.29;99569.22;5000316;28;20207;-83
2022/10/15 02:13:05;;;;;;;8.67;3.60;;;;;;;14.49;99.36;99559.59;4999918;28;20217;-83
2022/10/15 02:15:39;;;;;;;5.07;4.40;;;;;;;14.46;98.87;99564.97;5001128;28;20231;-82
2022/10/15 02:18:10;;;;;;;6.17;3.83;;;;;;;14.43;98.90;99559.84;5000335;28;20214;-83
2022/10/15 02:20:44;;;;;;;7.07;4.17;;;;;;;14.42;98.68;99561.66;4999818;28;20232;-83
2022/10/15 02:23:18;;;;;;;5.50;4.40;;;;;;;14.38;98.29;99564.50;5000930;28;20218;-83
2022/10/15 02:25:46;;;;;;;4.47;4.07;;;;;;;14.36;98.54;99559.31;4995152;28;20229;-80
2022/10/15 02:28:15;;;;;;;4.97;4.57;;;;;;;14.36;98.36;99564.56;4994363;28;20218;-80
2022/10/15 02:30:45;;;;;;;6.80;5.07;;;;;;;14.36;97.96;99569.81;4993575;28;20215;-80
2022/10/15 02:33:12;;;;;;;7.67;6.93;;;;;;;14.32;98.21;99559.56;4994225;28;20207;-81
2022/10/15 02:35:42;;;;;;;11.73;6.90;;;;;;;14.33;98.39;99561.25;4994257;28;20225;-79
2022/10/15 02:38:12;;;;;;;6.60;5.97;;;;;;;14.32;98.61;99564.81;4994644;28;20214;-81
2022/10/15 02:40:42;;;;;;;8.70;6.10;;;;;;;14.29;98.44;99558.78;4993917;28;20218;-79
2022/10/15 02:43:13;;;;;;;5.93;5.43;;;;;;;14.28;98.45;99553.59;4993748;28;20223;-79
2022/10/15 02:45:39;;;;;;;10.23;6.00;;;;;;;14.26;98.45;99556.28;4993311;28;20242;-78
2022/10/15 02:48:07;;;;;;;10.23;6.50;;;;;;;14.26;98.57;99548.41;4994235;28;20211;-79
2022/10/15 02:50:33;;;;;;;11.03;7.03;;;;;;;14.22;98.75;99543.41;4993828;28;20755;-79
2022/10/15 02:53:01;;;;;;;8.27;7.30;;;;;;;14.24;98.69;99536.28;4993771;28;20593;-79
2022/10/15 02:55:28;;;;;;;9.10;8.30;;;;;;;14.23;98.57;99538.06;4993586;28;20234;-79
2022/10/15 02:57:54;;;;;;;8.97;8.07;;;;;;;14.24;98.64;99539.75;4993455;28;20206;-80
2022/10/15 03:00:21;;;;;;;9.73;9.03;;;;;;;14.25;98.58;99545.84;4993758;28;20216;-80
2022/10/15 03:02:47;;;;;;;10.27;9.43;;;;;;;14.24;98.45;99542.38;4993794;28;20211;-79
2022/10/15 03:05:14;;;;;;;9.53;8.83;;;;;;;14.20;98.34;99540.84;4993578;28;20719;-80
2022/10/15 03:07:40;;;;;;;12.23;9.80;;;;;;;14.19;98.18;99548.78;4994064;28;20214;-79
2022/10/15 03:10:08;;;;;;;9.90;9.00;;;;;;;14.18;98.23;99554.97;4996182;28;20214;-80
2022/10/15 03:12:35;;;;;;;10.47;9.43;;;;;;;14.15;97.93;99563.81;4996982;28;20209;-80
2022/10/15 03:15:01;;;;;;;12.93;8.20;;;;;;;14.12;97.94;99563.13;4997292;28;20239;-79
2022/10/15 03:17:28;;;;;;;8.93;8.13;;;;;;;14.07;98.21;99560.72;4997182;28;20210;-79
2022/10/15 03:19:54;;;;;;;8.53;7.60;;;;;;;14.08;97.73;99565.06;4997039;28;20203;-79
2022/10/15 03:22:21;;;;;;;9.00;8.07;;;;;;;14.04;97.94;99564.34;4997139;28;20222;-79
2022/10/15 03:24:47;;;;;;;8.27;7.43;;;;;;;14.05;97.60;99560.81;4997144;28;20238;-79
2022/10/15 03:27:15;;;;;;;7.93;7.17;;;;;;;14.01;98.10;99563.63;4997165;28;20213;-79
2022/10/15 03:29:41;;;;;;;12.20;8.20;;;;;;;13.99;98.06;99554.97;4997105;28;20595;-79
2022/10/15 03:32:08;;;;;;;9.27;8.47;;;;;;;13.97;98.39;99549.81;4996970;28;20217;-79
2022/10/15 03:34:34;;;;;;;10.30;8.37;;;;;;;13.96;98.20;99553.38;4996940;28;20239;-79
2022/10/15 03:37:01;;;;;;;8.00;7.30;;;;;;;13.94;98.14;99546.50;4996650;28;20233;-79
2022/10/15 03:39:27;;;;;;;8.83;8.03;;;;;;;13.91;98.04;99552.72;4997201;28;20214;-79
2022/10/15 03:41:54;;;;;;;8.00;7.20;;;;;;;13.90;98.21;99554.50;4996581;28;20217;-80
2022/10/15 03:44:21;;;;;;;9.30;8.30;;;;;;;13.88;97.57;99556.34;4996405;28;20626;-79
2022/10/15 03:46:48;;;;;;;11.53;9.43;;;;;;;13.88;97.77;99553.72;4996621;28;20739;-80
2022/10/15 03:49:14;;;;;;;10.50;9.57;;;;;;;13.88;97.96;99556.34;4997003;28;20206;-80
2022/10/15 03:51:41;;;;;;;11.23;10.23;;;;;;;13.86;97.88;99557.34;4996117;28;20229;-79
2022/10/15 03:54:07;;;;;;;10.10;9.10;;;;;;;13.84;97.84;99554.78;4996756;28;20237;-79
2022/10/15 03:56:34;;;;;;;13.50;8.93;;;;;;;13.79;97.91;99559.38;4996457;28;20217;-80
2022/10/15 03:59:00;;;;;;;10.20;9.40;;;;;;;13.79;97.89;99553.28;4996874;28;20218;-80
2022/10/15 04:01:28;;;;;;;11.13;9.50;;;;;;;13.72;97.87;99552.75;4996100;28;20212;-80
2022/10/15 04:03:54;;;;;;;12.30;10.13;;;;;;;13.72;98.36;99550.13;4996335;28;20235;-79
2022/10/15 04:06:21;;;;;;;11.77;9.60;;;;;;;13.74;98.17;99552.69;4996192;28;20233;-79
2022/10/15 04:08:47;;;;;;;10.03;9.27;;;;;;;13.72;98.02;99550.13;4996672;28;20220;-80
2022/10/15 04:11:14;;;;;;;11.00;9.90;;;;;;;13.75;97.84;99551.75;4996004;28;20210;-80
2022/10/15 04:13:40;;;;;;;10.30;9.27;;;;;;;13.74;97.70;99553.53;4995834;28;20252;-79
2022/10/15 04:16:07;;;;;;;10.07;9.07;;;;;;;13.76;97.77;99556.91;4996179;28;20237;-79
2022/10/15 04:18:35;;;;;;;9.03;7.93;;;;;;;13.71;97.93;99561.50;4996127;28;20220;-79
2022/10/15 04:21:01;;;;;;;9.80;8.77;;;;;;;13.72;97.67;99562.38;4996349;28;20214;-79
2022/10/15 04:23:28;;;;;;;9.03;8.13;;;;;;;13.69;97.78;99565.97;4995862;28;20212;-80
2022/10/15 04:25:58;;;;;;;8.57;7.87;;;;;;;13.68;98.26;99565.13;4995825;28;20229;-79
2022/10/15 04:28:25;;;;;;;10.30;7.17;;;;;;;13.66;98.34;99556.50;4995497;28;20215;-79
2022/10/15 04:30:51;;;;;;;11.23;8.90;;;;;;;13.67;98.19;99557.34;4996215;28;20703;-79
2022/10/15 04:33:18;;;;;;;10.37;7.97;;;;;;;13.64;98.15;99555.72;4995960;28;20711;-79
2022/10/15 04:35:45;;;;;;;7.97;7.30;;;;;;;13.63;98.23;99555.78;4996125;28;20216;-81
2022/10/15 04:38:12;;;;;;;10.03;7.87;;;;;;;13.59;98.17;99557.69;4995659;28;20226;-80
2022/10/15 04:40:40;;;;;;;9.93;8.83;;;;;;;13.59;97.97;99560.31;4995925;28;20209;-79
2022/10/15 04:43:06;;;;;;;9.20;7.93;;;;;;;13.61;97.77;99568.09;4995975;28;20218;-81
2022/10/15 04:45:32;;;;;;;10.80;8.07;;;;;;;13.60;97.93;99567.25;4995508;28;20607;-80
2022/10/15 04:47:59;;;;;;;11.23;7.83;;;;;;;13.57;97.84;99562.16;4995670;28;20218;-81
2022/10/15 04:50:25;;;;;;;8.80;7.83;;;;;;;13.60;97.99;99569.03;4995605;28;20213;-80
2022/10/15 04:52:53;;;;;;;9.90;8.97;;;;;;;13.58;98.00;99570.88;4995468;28;20217;-80
2022/10/15 04:55:19;;;;;;;13.23;9.00;;;;;;;13.55;97.91;99573.63;4995298;28;20872;-80
2022/10/15 04:57:46;;;;;;;8.77;7.90;;;;;;;13.52;98.18;99569.38;4995584;28;20207;-80
2022/10/15 05:00:13;;;;;;;13.10;8.33;;;;;;;13.51;98.41;99568.50;4995205;28;20214;-80
2022/10/15 05:02:41;;;;;;;8.90;8.10;;;;;;;13.54;98.49;99564.91;4997102;28;20253;-79
2022/10/15 05:05:08;;;;;;;11.00;8.93;;;;;;;13.51;98.34;99565.88;4995589;28;20579;-80
2022/10/15 05:07:35;;;;;;;15.00;10.00;;;;;;;13.47;98.82;99561.72;4995525;28;20760;-80
2022/10/15 05:10:03;;;;;;;12.30;10.10;;;;;;;13.43;99.65;99546.19;4995272;28;20210;-80
2022/10/15 05:12:29;;;;;;;12.67;11.37;;;;;;;13.37;100.00;99533.38;4995028;28;20208;-79
2022/10/15 05:14:55;;;;;;;11.53;10.53;;;;;;;13.35;100.00;99509.00;4995267;28;20237;-81
2022/10/15 05:17:22;;;;;;;12.10;10.40;;;;;;;13.31;100.00;99495.16;4995606;28;20264;-80
2022/10/15 05:19:48;;;;;;;14.13;11.70;;;;;;;13.34;100.00;99488.94;4994927;28;20212;-80
2022/10/15 05:22:15;;;;;;;12.80;11.03;;;;;;;13.31;100.00;99485.53;4995540;28;20239;-82
2022/10/15 05:24:41;;;;;;;13.07;10.73;;;;;;;13.32;100.00;99486.41;4995775;28;20242;-81
2022/10/15 05:27:09;;;;;;;21.10;10.97;;;;;;;13.33;100.00;99495.94;4995307;28;20720;-80
2022/10/15 05:29:37;;;;;;;13.73;10.93;;;;;;;13.35;100.00;99507.22;4995921;28;20217;-79
2022/10/15 05:32:03;;;;;;;14.30;11.07;;;;;;;13.36;100.00;99511.56;4995443;28;20215;-80
2022/10/15 05:34:30;;;;;;;15.60;10.87;;;;;;;13.38;100.00;99516.69;4995653;28;20241;-80
2022/10/15 05:36:56;;;;;;;11.43;10.33;;;;;;;13.39;100.00;99524.50;4996211;28;20210;-79
2022/10/15 05:39:23;;;;;;;11.13;9.93;;;;;;;13.41;100.00;99532.31;4996948;28;20209;-81
2022/10/15 05:41:49;;;;;;;11.83;10.47;;;;;;;13.42;100.00;99547.97;4997122;28;20631;-82
2022/10/15 05:44:25;;;;;;;13.77;12.43;;;;;;;13.42;99.94;99547.97;5006969;28;20611;-82
2022/10/15 05:46:51;;;;;;;12.37;11.27;;;;;;;13.44;99.90;99554.00;4996613;28;20260;-81
2022/10/15 05:49:18;;;;;;;12.87;11.43;;;;;;;13.45;100.00;99550.44;4996352;28;20208;-81
2022/10/15 05:51:45;;;;;;;18.10;12.60;;;;;;;13.48;99.87;99550.31;4996302;28;20244;-81
2022/10/15 05:54:11;;;;;;;15.73;11.87;;;;;;;13.50;100.00;99552.88;4996509;28;20250;-81
2022/10/15 05:56:38;;;;;;;14.90;12.93;;;;;;;13.55;100.00;99553.50;4996391;28;20216;-81
2022/10/15 05:59:04;;;;;;;23.60;11.63;;;;;;;13.57;100.00;99556.06;4996002;28;20211;-80
2022/10/15 06:01:32;;;;;;;20.73;13.03;;;;;;;13.59;100.00;99556.84;4995780;28;20688;-79
2022/10/15 06:03:59;;;;;;;17.00;12.20;;;;;;;13.56;100.00;99543.84;4997512;28;20233;-80
2022/10/15 06:06:26;;;;;;;14.13;12.83;;;;;;;13.57;100.00;99532.47;4994576;28;20266;-79
2022/10/15 06:08:53;;;;;;;14.83;13.53;;;;;;;13.60;100.00;99519.22;4995689;28;20212;-79
2022/10/15 06:11:20;;;;;;;14.40;12.83;;;;;;;13.62;100.00;99517.38;4994821;28;20220;-79
2022/10/15 06:13:47;;;;;;;17.70;14.50;;;;;;;13.65;100.00;99523.31;4995085;28;20234;-78
2022/10/15 06:16:15;;;;;;;19.67;13.33;;;;;;;13.68;100.00;99522.34;4997931;28;20686;-80
2022/10/15 06:18:43;;;;;;;19.37;14.27;;;;;;;13.72;100.00;99531.75;4996760;28;20210;-78
2022/10/15 06:21:10;;;;;;;14.73;13.10;;;;;;;13.75;100.00;99531.59;4996830;28;20241;-80
2022/10/15 06:23:37;;;;;;;15.40;13.63;;;;;;;13.77;100.00;99537.63;4996048;28;20208;-80
2022/10/15 06:26:04;;;;;;;15.13;12.63;;;;;;;13.81;100.00;99535.72;4997787;28;20237;-80
2022/10/15 06:28:31;;;;;;;14.13;12.47;;;;;;;13.84;100.00;99539.03;4997022;28;20210;-80
2022/10/15 06:30:59;;;;;;;19.93;11.47;;;;;;;13.82;100.00;99548.75;4997623;28;20220;-82
2022/10/15 06:33:25;;;;;;;14.40;11.13;;;;;;;13.84;100.00;99552.16;4998356;28;20213;-82
2022/10/15 06:35:53;;;;;;;13.57;12.17;;;;;;;13.86;100.00;99552.94;4998176;28;20218;-82
2022/10/15 06:38:19;;;;;;;14.00;12.60;;;;;;;13.88;100.00;99563.38;4997367;28;20210;-82
2022/10/15 06:40:46;;;;;;;15.40;12.83;;;;;;;13.88;100.00;99561.59;4997305;28;20210;-82
2022/10/15 06:43:12;;;;;;;15.37;13.43;;;;;;;13.90;100.00;99578.09;4997900;28;20210;-82
2022/10/15 06:45:41;;;;;;;15.27;13.73;;;;;;;13.94;100.00;99585.84;5000874;28;20230;-82
2022/10/15 06:48:08;;;;;;;16.03;14.07;;;;;;;13.90;100.00;99599.09;5001934;28;20230;-82
2022/10/15 06:50:36;;;;;;;13.40;12.10;;;;;;;13.91;100.00;99605.19;5001816;28;20708;-82
2022/10/15 06:53:04;;;;;;;13.83;12.53;;;;;;;13.88;100.00;99598.31;5002034;28;20211;-82
2022/10/15 06:55:31;;;;;;;16.03;14.40;;;;;;;13.93;100.00;99605.13;5001054;28;20576;-82
2022/10/15 06:57:58;;;;;;;16.20;14.80;;;;;;;13.82;100.00;99600.38;5002058;28;20217;-83
2022/10/15 07:00:25;;;;;;;15.77;14.27;;;;;;;13.84;100.00;99594.13;5002210;28;20676;-82
2022/10/15 07:02:51;;;;;;;15.50;13.90;;;;;;;13.94;100.00;99605.06;5002388;28;20205;-82
2022/10/15 07:05:18;;;;;;;14.57;13.27;;;;;;;13.97;100.00;99611.94;5002445;28;20230;-82
2022/10/15 07:07:51;;;;;;;14.80;12.40;;;;;;;14.02;100.00;99617.81;5002118;28;20234;-82
2022/10/15 07:10:19;;;;;;;14.50;13.10;;;;;;;14.04;100.00;99614.19;5001510;28;20213;-82
2022/10/15 07:12:46;;;;;;;15.70;13.17;;;;;;;14.10;100.00;99620.94;5001125;28;20649;-81
2022/10/15 07:15:13;;;;;;;16.97;14.37;;;;;;;14.13;100.00;99623.41;5001731;28;20226;-81
2022/10/15 07:17:39;;;;;;;15.60;14.10;;;;;;;14.17;100.00;99625.00;5001590;28;20218;-82
2022/10/15 07:20:07;;;;;;;15.00;13.40;;;;;;;14.14;100.00;99622.50;5001344;28;20691;-81
2022/10/15 07:22:34;;;;;;;14.87;13.37;;;;;;;14.20;100.00;99626.63;5001908;28;20211;-80
2022/10/15 07:25:00;;;;;;;16.73;13.57;;;;;;;14.19;100.00;99628.41;5003176;28;20749;-80
2022/10/15 07:27:28;;;;;;;15.40;14.10;;;;;;;14.20;100.00;99621.38;5000500;28;20233;-84
2022/10/15 07:29:54;;;;;;;16.73;15.23;;;;;;;14.22;100.00;99625.59;4999976;28;20231;-83
2022/10/15 07:32:21;;;;;;;16.03;14.40;;;;;;;14.23;100.00;99634.31;5001597;28;20213;-82
2022/10/15 07:34:47;;;;;;;16.60;15.17;;;;;;;14.27;100.00;99628.00;5002190;28;20230;-81
2022/10/15 07:37:14;;;;;;;18.03;15.37;;;;;;;14.26;100.00;99631.56;5001539;28;20692;-82
2022/10/15 07:39:40;;;;;;;15.70;14.50;;;;;;;14.32;100.00;99627.81;5001751;28;20212;-82
2022/10/15 07:42:07;;;;;;;16.20;13.40;;;;;;;14.33;100.00;99629.50;5001138;28;20221;-82
2022/10/15 07:44:34;;;;;;;15.80;14.50;;;;;;;14.36;100.00;99630.22;5001136;28;20234;-82
2022/10/15 07:47:01;;;;;;;16.10;14.50;;;;;;;14.40;100.00;99620.41;5000804;28;20234;-81
2022/10/15 07:49:27;;;;;;;14.63;13.30;;;;;;;14.40;100.00;99636.16;4999643;28;20695;-81
2022/10/15 07:51:54;;;;;;;16.70;14.80;;;;;;;14.43;100.00;99630.75;5000030;28;20217;-80
2022/10/15 07:54:20;;;;;;;13.50;12.30;;;;;;;14.44;100.00;99625.44;4999519;28;20240;-79
2022/10/15 07:56:47;;;;;;;16.50;15.20;;;;;;;14.47;100.00;99619.22;5000807;28;20208;-81
2022/10/15 07:59:13;;;;;;;16.53;14.90;;;;;;;14.56;100.00;99618.78;5000685;28;20691;-78
2022/10/15 08:01:41;;;;;;;16.87;15.27;;;;;;;14.55;100.00;99626.69;5000507;28;20209;-79
2022/10/15 08:04:07;;;;;;;17.50;15.90;;;;;;;14.61;100.00;99627.28;5000365;28;20610;-79
2022/10/15 08:06:34;;;;;;;17.90;16.30;;;;;;;14.70;100.00;99624.19;5004425;28;20212;-81
2022/10/15 08:09:00;;;;;;;19.00;17.07;;;;;;;14.74;100.00;99624.06;5001521;28;20217;-80
2022/10/15 08:11:27;;;;;;;17.73;16.33;;;;;;;14.78;100.00;99634.34;4999503;28;20209;-81
2022/10/15 08:13:53;;;;;;;17.13;15.73;;;;;;;14.92;100.00;99635.44;5000487;28;20236;-80
2022/10/15 08:16:20;;;;;;;18.23;16.43;;;;;;;14.87;100.00;99641.78;5000271;28;20211;-81
2022/10/15 08:18:47;;;;;;;17.33;15.93;;;;;;;14.99;99.95;99649.97;5000010;28;20215;-81
2022/10/15 08:21:15;;;;;;;17.87;16.27;;;;;;;15.04;99.50;99661.97;4999682;28;20218;-80
2022/10/15 08:23:42;;;;;;;18.93;17.00;;;;;;;14.97;98.82;99678.13;4999602;28;20226;-81
2022/10/15 08:26:09;;;;;;;18.87;17.10;;;;;;;15.00;98.91;99675.31;4999792;28;20215;-81
2022/10/15 08:28:35;;;;;;;19.63;17.87;;;;;;;15.06;99.28;99675.88;4999130;28;20274;-79
2022/10/15 08:31:02;;;;;;;18.20;16.60;;;;;;;15.12;98.84;99681.75;4998938;28;20214;-83
2022/10/15 08:33:29;;;;;;;19.20;17.40;;;;;;;15.16;98.21;99688.56;4999078;28;20568;-79
2022/10/15 08:35:58;;;;;;;17.97;16.47;;;;;;;15.16;98.40;99692.03;4999410;28;20200;-81
2022/10/15 08:38:24;;;;;;;19.00;17.27;;;;;;;15.13;98.07;99688.72;4999359;28;20208;-78
2022/10/15 08:40:54;;;;;;;20.40;18.70;;;;;;;15.11;98.29;99687.94;4998937;28;20260;-79
2022/10/15 08:43:25;;;;;;;18.60;17.00;;;;;;;15.12;98.33;99689.63;4999484;28;20209;-81
2022/10/15 08:45:55;;;;;;;20.10;18.20;;;;;;;15.12;98.78;99682.59;4999989;28;20715;-81
2022/10/15 08:48:28;;;;;;;19.87;18.07;;;;;;;15.14;98.43;99682.53;4999107;28;20234;-81
2022/10/15 08:51:00;;;;;;;19.53;17.83;;;;;;;15.14;98.85;99683.34;4998596;28;20211;-80
2022/10/15 08:53:29;;;;;;;18.60;16.97;;;;;;;15.09;98.39;99680.97;4999628;28;20222;-80
2022/10/15 08:56:00;;;;;;;17.70;16.30;;;;;;;15.16;98.52;99683.28;4999703;28;20206;-79
2022/10/15 08:58:36;;;;;;;20.17;18.27;;;;;;;15.17;98.42;99682.38;4999501;28;20218;-80
2022/10/15 09:01:06;;;;;;;19.93;18.23;;;;;;;15.22;97.52;99704.88;4998825;28;20221;-80
2022/10/15 09:03:39;;;;;;;17.07;15.67;;;;;;;15.29;97.44;99713.31;4998715;28;20205;-80
2022/10/15 09:06:14;;;;;;;17.17;15.77;;;;;;;15.17;97.59;99706.88;4998524;28;20742;-81
2022/10/15 09:08:51;;;;;;;17.47;15.90;;;;;;;15.15;96.44;99721.03;4998757;28;20237;-82
2022/10/15 09:11:27;;;;;;;17.47;15.63;;;;;;;15.11;95.72;99741.38;4998378;28;20207;-81
2022/10/15 09:13:55;;;;;;;16.80;15.20;;;;;;;15.31;95.63;99755.31;4998851;28;20229;-80
2022/10/15 09:16:25;;;;;;;17.10;15.63;;;;;;;15.38;95.25;99762.81;4998756;28;20215;-81
2022/10/15 09:18:53;;;;;;;15.03;13.83;;;;;;;15.38;94.54;99783.00;4998519;28;20207;-80
2022/10/15 09:21:24;;;;;;;14.97;13.70;;;;;;;15.43;94.19;99781.84;4997617;28;20638;-81
2022/10/15 09:23:51;;;;;;;15.67;14.37;;;;;;;15.45;93.75;99787.88;4997980;28;20244;-81
2022/10/15 09:26:25;;;;;;;15.50;14.30;;;;;;;15.58;94.07;99789.88;4998070;28;20222;-81
2022/10/15 09:29:01;;;;;;;16.30;14.90;;;;;;;15.75;93.62;99792.56;4998158;28;20230;-81
2022/10/15 09:31:32;;;;;;;15.17;13.90;;;;;;;15.92;93.27;99796.13;4998086;28;20213;-81
2022/10/15 09:34:04;;;;;;;14.40;13.10;;;;;;;16.12;92.60;99806.47;4997480;28;20261;-80
2022/10/15 09:36:40;;;;;;;14.43;13.23;;;;;;;16.10;91.35;99841.72;4998082;28;20206;-81
2022/10/15 09:39:28;;;;;;;14.80;13.60;;;;;;;16.02;90.55;99866.66;4998134;28;20206;-81
2022/10/15 09:42:08;;;;;;;13.20;12.10;;;;;;;15.94;90.50;99875.88;4997392;28;20214;-81
2022/10/15 09:44:39;;;;;;;13.60;12.60;;;;;;;15.92;90.31;99883.84;4998177;28;20235;-80
2022/10/15 09:47:16;;;;;;;12.23;11.23;;;;;;;15.94;90.89;99866.19;4998050;28;20227;-80
2022/10/15 09:49:42;;;;;;;13.30;12.20;;;;;;;15.98;90.89;99857.19;4998471;28;20206;-80
2022/10/15 09:52:18;;;;;;;10.63;9.73;;;;;;;15.92;90.22;99869.84;4997588;28;20289;-81
2022/10/15 09:54:54;;;;;;;9.60;8.90;;;;;;;16.01;90.44;99864.06;4998188;28;20226;-81
2022/10/15 09:57:23;;;;;;;9.87;9.07;;;;;;;16.06;90.40;99870.81;4997393;28;20275;-82
2022/10/15 09:59:54;;;;;;;10.83;9.83;;;;;;;16.16;89.84;99880.91;4997689;28;20202;-79
2022/10/15 10:02:22;;;;;;;10.60;9.90;;;;;;;16.26;90.34;99866.31;4997928;28;20214;-82
2022/10/15 10:04:49;;;;;;;11.33;10.50;;;;;;;16.11;87.70;99920.59;4997883;28;20234;-80
2022/10/15 10:07:35;;;;;;;11.67;10.67;;;;;;;16.10;88.67;99916.28;4997868;28;20223;-81
2022/10/15 10:10:04;;;;;;;11.37;10.40;;;;;;;16.20;87.90;99914.03;4997759;28;20206;-82
2022/10/15 10:12:33;;;;;;;11.30;10.43;;;;;;;16.31;87.34;99939.81;4997671;28;20213;-81
2022/10/15 10:15:04;;;;;;;11.03;10.13;;;;;;;16.23;86.53;99948.97;4997387;28;20233;-79
2022/10/15 10:17:31;;;;;;;10.50;9.70;;;;;;;16.28;87.25;99954.00;4997642;28;20207;-81
2022/10/15 10:20:17;;;;;;;12.20;11.30;;;;;;;16.31;87.95;99930.13;5001716;28;20210;-81
2022/10/15 10:22:47;;;;;;;11.60;10.70;;;;;;;16.47;88.76;99907.34;5001882;28;20693;-82
2022/10/15 10:25:29;;;;;;;11.63;10.67;;;;;;;16.56;88.18;99916.56;5002436;28;20235;-81
2022/10/15 10:27:57;;;;;;;12.23;11.23;;;;;;;16.55;87.09;99930.69;5000119;28;20226;-82
2022/10/15 10:30:24;;;;;;;11.90;11.00;;;;;;;16.53;86.52;99947.47;5002361;28;20681;-84
2022/10/15 10:32:56;;;;;;;11.63;10.73;;;;;;;16.36;85.41;99972.06;5001093;28;20210;-84
2022/10/15 10:35:25;;;;;;;10.03;9.23;;;;;;;16.55;85.96;99959.66;4999996;28;20235;-81
2022/10/15 10:37:53;;;;;;;11.43;10.53;;;;;;;16.29;84.16;99992.56;5001344;28;20206;-82
2022/10/15 10:40:27;;;;;;;11.73;10.73;;;;;;;16.43;85.31;99976.06;5002417;28;20211;-80
2022/10/15 10:43:11;;;;;;;11.50;10.63;;;;;;;16.51;85.39;99968.66;5002460;28;20234;-83
2022/10/15 10:45:38;;;;;;;11.00;10.10;;;;;;;16.39;84.35;99993.84;4994266;28;20821;-82
2022/10/15 10:48:19;;;;;;;10.17;9.37;;;;;;;16.54;85.11;99973.75;4989955;28;20230;-82
2022/10/15 10:50:45;;;;;;;8.50;7.90;;;;;;;16.44;81.58;100028.69;5000318;28;20200;-83
2022/10/15 10:53:21;;;;;;;9.53;8.50;;;;;;;16.53;82.09;100047.59;5009386;28;20195;-82
2022/10/15 10:55:49;;;;;;;8.13;7.63;;;;;;;16.51;82.16;100049.44;5011710;28;20205;-83
2022/10/15 10:58:19;;;;;;;7.23;6.73;;;;;;;16.45;80.86;100091.00;5016561;28;20503;-79
2022/10/15 11:00:48;;;;;;;8.17;7.57;;;;;;;16.39;81.64;100072.00;5014545;28;20199;-80
2022/10/15 11:03:27;;;;;;;7.60;7.10;;;;;;;16.41;81.63;100052.56;4322142;28;10000756;-83
2022/10/15 11:06:00;;;;;;;5.80;5.40;;;;;;;16.43;80.25;100076.19;5012620;28;20212;-84
2022/10/15 11:08:36;;;;;;;5.63;5.23;;;;;;;16.56;80.68;100081.72;5014937;28;20225;-84
2022/10/15 11:11:12;;;;;;;5.80;5.40;;;;;;;16.60;80.21;100089.38;5012428;28;20466;-83
2022/10/15 11:13:54;;;;;;;5.73;5.33;;;;;;;16.58;79.35;100104.41;5007794;28;20219;-83
2022/10/15 11:16:30;;;;;;;5.90;5.50;;;;;;;16.73;80.61;100088.75;4998933;28;20217;-85
2022/10/15 11:19:10;;;;;;;5.57;5.17;;;;;;;16.77;79.63;100098.22;4997844;28;20215;-83
2022/10/15 11:21:51;;;;;;;5.50;5.10;;;;;;;16.91;80.34;100087.00;4997934;28;20217;-83
2022/10/15 11:24:23;;;;;;;5.93;5.53;;;;;;;17.01;80.22;100072.44;4997951;28;20460;-84
2022/10/15 11:27:03;;;;;;;5.47;5.07;;;;;;;16.97;78.10;100107.81;4998472;28;20296;-83
2022/10/15 11:29:38;;;;;;;4.93;4.53;;;;;;;16.99;77.40;100141.06;4997444;28;20231;-82
2022/10/15 11:32:15;;;;;;;4.73;4.37;;;;;;;17.03;78.40;100131.25;4998753;28;20220;-83